createdAt,value
2018-02-13T00:01:53.988Z,6.80
2018-02-13T00:04:21.487Z,6.63
2018-02-13T00:06:49.734Z,6.43
2018-02-13T00:09:17.235Z,6.13
2018-02-13T00:11:44.788Z,6.33
2018-02-13T00:14:13.015Z,4.43
2018-02-13T00:16:40.559Z,5.47
2018-02-13T00:19:08.039Z,6.30
2018-02-13T00:21:35.538Z,6.33
2018-02-13T00:24:03.034Z,5.90
2018-02-13T00:26:30.513Z,5.67
2018-02-13T00:28:58.033Z,5.83
2018-02-13T00:31:25.524Z,5.40
2018-02-13T00:33:53.016Z,5.63
2018-02-13T00:36:20.505Z,5.40
2018-02-13T00:38:47.991Z,5.93
2018-02-13T00:41:16.318Z,5.43
2018-02-13T00:43:43.832Z,5.73
2018-02-13T00:46:12.131Z,5.03
2018-02-13T00:48:40.390Z,6.13
2018-02-13T00:51:08.653Z,5.23
2018-02-13T00:53:36.126Z,4.73
2018-02-13T00:56:04.395Z,6.23
2018-02-13T00:58:34.193Z,5.87
2018-02-13T01:01:01.666Z,5.60
2018-02-13T01:03:29.127Z,5.20
2018-02-13T01:05:57.401Z,5.10
2018-02-13T01:08:24.881Z,4.70
2018-02-13T01:10:52.331Z,5.27
2018-02-13T01:13:19.834Z,5.40
2018-02-13T01:15:47.287Z,5.03
2018-02-13T01:18:14.822Z,5.53
2018-02-13T01:20:42.329Z,4.63
2018-02-13T01:23:09.807Z,5.80
2018-02-13T01:25:37.286Z,5.87
2018-02-13T01:28:04.804Z,4.77
2018-02-13T01:30:33.058Z,4.97
2018-02-13T01:33:00.562Z,5.23
2018-02-13T01:35:28.052Z,5.30
2018-02-13T01:37:55.561Z,5.07
2018-02-13T01:40:23.813Z,6.07
2018-02-13T01:42:51.325Z,4.70
2018-02-13T01:45:18.822Z,5.23
2018-02-13T01:47:46.327Z,4.47
2018-02-13T01:50:26.786Z,5.17
2018-02-13T01:52:54.283Z,4.83
2018-02-13T01:55:21.748Z,5.10
2018-02-13T01:57:49.310Z,5.17
2018-02-13T02:00:16.791Z,4.90
2018-02-13T02:02:45.045Z,5.10
2018-02-13T02:05:12.513Z,4.80
2018-02-13T02:07:40.801Z,4.97
2018-02-13T02:10:08.331Z,5.37
2018-02-13T02:12:35.831Z,6.17
2018-02-13T02:15:03.316Z,5.03
2018-02-13T02:17:31.668Z,8.07
2018-02-13T02:19:59.137Z,7.73
2018-02-13T02:22:26.600Z,6.10
2018-02-13T02:24:54.097Z,5.07
2018-02-13T02:27:22.379Z,4.80
2018-02-13T02:29:50.627Z,3.27
2018-02-13T02:32:19.244Z,4.23
2018-02-13T02:34:46.737Z,4.40
2018-02-13T02:37:14.200Z,3.83
2018-02-13T02:39:41.682Z,4.17
2018-02-13T02:42:09.179Z,4.37
2018-02-13T02:44:36.676Z,4.47
2018-02-13T02:47:04.166Z,4.30
2018-02-13T02:49:32.424Z,4.20
2018-02-13T02:51:59.939Z,4.67
2018-02-13T02:54:27.417Z,4.57
2018-02-13T02:56:54.914Z,4.40
2018-02-13T02:59:23.167Z,4.50
2018-02-13T03:01:52.162Z,4.73
2018-02-13T03:04:19.642Z,4.40
2018-02-13T03:06:48.008Z,4.60
2018-02-13T03:09:16.271Z,5.23
2018-02-13T03:11:43.748Z,4.90
2018-02-13T03:14:11.245Z,4.50
2018-02-13T03:16:38.731Z,4.93
2018-02-13T03:19:06.405Z,3.77
2018-02-13T03:21:34.663Z,3.97
2018-02-13T03:24:02.197Z,4.53
2018-02-13T03:26:29.690Z,4.57
2018-02-13T03:28:57.154Z,4.60
2018-02-13T03:31:25.411Z,5.27
2018-02-13T03:33:52.886Z,4.40
2018-02-13T03:36:21.128Z,3.93
2018-02-13T03:38:48.648Z,5.30
2018-02-13T03:41:16.120Z,4.27
2018-02-13T03:43:43.585Z,4.63
2018-02-13T03:46:11.082Z,4.73
2018-02-13T03:48:38.584Z,4.57
2018-02-13T03:51:06.057Z,4.43
2018-02-13T03:53:33.553Z,4.53
2018-02-13T03:56:01.811Z,4.93
2018-02-13T03:58:29.345Z,3.93
2018-02-13T04:00:56.829Z,4.90
2018-02-13T04:03:24.331Z,4.17
2018-02-13T04:05:52.778Z,4.27
2018-02-13T04:08:21.050Z,5.23
2018-02-13T04:10:49.301Z,4.70
2018-02-13T04:13:16.782Z,4.40
2018-02-13T04:15:45.043Z,4.57
2018-02-13T04:18:12.530Z,5.33
2018-02-13T04:20:40.014Z,4.33
2018-02-13T04:23:07.505Z,4.47
2018-02-13T04:25:34.978Z,4.70
2018-02-13T04:28:03.227Z,4.63
2018-02-13T04:30:30.722Z,4.57
2018-02-13T04:32:58.962Z,4.10
2018-02-13T04:35:26.430Z,4.90
2018-02-13T04:37:53.925Z,4.83
2018-02-13T04:40:21.433Z,5.10
2018-02-13T04:42:48.931Z,4.67
2018-02-13T04:45:16.424Z,4.93
2018-02-13T04:47:43.906Z,3.83
2018-02-13T04:50:11.394Z,4.10
2018-02-13T04:52:38.854Z,4.63
2018-02-13T04:55:06.455Z,5.43
2018-02-13T04:57:33.923Z,5.67
2018-02-13T05:00:01.431Z,6.60
2018-02-13T05:02:28.893Z,4.47
2018-02-13T05:04:57.187Z,5.83
2018-02-13T05:07:24.665Z,5.13
2018-02-13T05:09:52.158Z,5.73
2018-02-13T05:12:20.406Z,5.63
2018-02-13T05:14:47.883Z,6.83
2018-02-13T05:17:16.131Z,5.53
2018-02-13T05:19:43.644Z,5.40
2018-02-13T05:22:11.870Z,5.13
2018-02-13T05:24:39.351Z,6.13
2018-02-13T05:27:07.605Z,6.60
2018-02-13T05:29:35.083Z,6.73
2018-02-13T05:32:02.570Z,6.17
2018-02-13T05:34:30.040Z,7.10
2018-02-13T05:36:57.557Z,5.47
2018-02-13T05:39:25.041Z,6.37
2018-02-13T05:41:52.513Z,6.77
2018-02-13T05:44:20.400Z,6.70
2018-02-13T05:46:47.901Z,7.20
2018-02-13T05:49:15.382Z,5.97
2018-02-13T05:51:42.847Z,7.00
2018-02-13T05:54:10.898Z,6.67
2018-02-13T05:56:38.369Z,6.63
2018-02-13T05:59:05.839Z,6.47
2018-02-13T06:01:33.338Z,6.80
2018-02-13T06:04:01.068Z,6.83
2018-02-13T06:06:28.611Z,6.70
2018-02-13T06:08:56.093Z,6.13
2018-02-13T06:11:24.343Z,6.00
2018-02-13T06:13:51.843Z,6.67
2018-02-13T06:16:20.257Z,6.17
2018-02-13T06:18:49.665Z,5.50
2018-02-13T06:21:17.174Z,6.30
2018-02-13T06:23:45.421Z,4.77
2018-02-13T06:26:12.912Z,6.33
2018-02-13T06:28:40.396Z,5.73
2018-02-13T06:31:08.030Z,6.20
2018-02-13T06:33:35.515Z,6.73
2018-02-13T06:36:04.136Z,6.20
2018-02-13T06:38:33.591Z,5.27
2018-02-13T06:41:01.602Z,5.87
2018-02-13T06:43:29.130Z,5.43
2018-02-13T06:45:57.475Z,6.70
2018-02-13T06:48:24.991Z,6.47
2018-02-13T06:50:52.510Z,5.07
2018-02-13T06:53:19.978Z,5.70
2018-02-13T06:55:47.490Z,6.13
2018-02-13T06:58:15.779Z,6.70
2018-02-13T07:00:43.393Z,6.30
2018-02-13T07:03:11.021Z,5.37
2018-02-13T07:05:38.528Z,6.23
2018-02-13T07:08:06.759Z,6.67
2018-02-13T07:10:34.370Z,7.43
2018-02-13T07:13:02.934Z,6.63
2018-02-13T07:15:31.919Z,6.57
2018-02-13T07:18:02.328Z,5.87
2018-02-13T07:20:29.806Z,6.83
2018-02-13T07:22:57.613Z,6.70
2018-02-13T07:25:25.171Z,6.00
2018-02-13T07:27:55.768Z,6.37
2018-02-13T07:30:26.225Z,6.37
2018-02-13T07:32:54.366Z,6.13
2018-02-13T07:35:21.908Z,6.53
2018-02-13T07:37:49.376Z,5.80
2018-02-13T07:40:17.689Z,6.03
2018-02-13T07:42:45.170Z,5.87
2018-02-13T07:45:13.455Z,6.20
2018-02-13T07:47:41.691Z,6.00
2018-02-13T07:50:09.181Z,6.17
2018-02-13T07:52:36.661Z,5.83
2018-02-13T07:55:04.523Z,5.33
2018-02-13T07:57:32.779Z,5.70
2018-02-13T08:00:01.069Z,5.87
2018-02-13T08:02:28.704Z,5.47
2018-02-13T08:04:57.642Z,5.23
2018-02-13T08:07:27.867Z,6.00
2018-02-13T08:09:57.137Z,6.03
2018-02-13T08:12:24.650Z,5.70
2018-02-13T08:14:52.216Z,5.50
2018-02-13T08:17:19.713Z,6.80
2018-02-13T08:19:47.207Z,5.10
2018-02-13T08:22:14.701Z,7.00
2018-02-13T08:24:42.485Z,5.67
2018-02-13T08:27:10.353Z,5.90
2018-02-13T08:29:38.925Z,4.50
2018-02-13T08:32:06.507Z,5.60
2018-02-13T08:34:35.126Z,5.73
2018-02-13T08:37:02.893Z,5.03
2018-02-13T08:39:31.619Z,4.70
2018-02-13T08:42:00.463Z,5.50
2018-02-13T08:44:27.978Z,5.23
2018-02-13T08:46:55.485Z,5.17
2018-02-13T08:49:23.034Z,5.60
2018-02-13T08:51:50.510Z,6.50
2018-02-13T08:54:17.986Z,6.70
2018-02-13T08:56:45.495Z,5.03
2018-02-13T08:59:13.005Z,6.83
2018-02-13T09:01:40.627Z,6.27
2018-02-13T09:04:08.108Z,5.60
2018-02-13T09:06:35.577Z,6.93
2018-02-13T09:09:03.082Z,6.37
2018-02-13T09:11:30.594Z,6.27
2018-02-13T09:13:58.076Z,5.57
2018-02-13T09:16:26.311Z,6.77
2018-02-13T09:18:53.811Z,5.70
2018-02-13T09:21:22.047Z,5.93
2018-02-13T09:23:49.520Z,5.40
2018-02-13T09:26:17.786Z,6.50
2018-02-13T09:28:45.260Z,4.47
2018-02-13T09:31:13.510Z,5.30
2018-02-13T09:33:41.002Z,6.03
2018-02-13T09:36:08.487Z,6.40
2018-02-13T09:38:35.986Z,5.80
2018-02-13T09:41:03.487Z,6.40
2018-02-13T09:43:30.989Z,4.73
2018-02-13T09:45:58.473Z,5.33
2018-02-13T09:48:26.736Z,5.37
2018-02-13T09:50:54.230Z,6.17
2018-02-13T09:53:21.716Z,5.80
2018-02-13T09:55:49.199Z,5.70
2018-02-13T09:58:16.751Z,6.73
2018-02-13T10:00:44.225Z,5.30
2018-02-13T10:03:12.587Z,5.70
2018-02-13T10:05:40.059Z,6.53
2018-02-13T10:08:08.323Z,5.17
2018-02-13T10:10:35.814Z,6.87
2018-02-13T10:13:03.307Z,5.83
2018-02-13T10:15:30.781Z,6.57
2018-02-13T10:17:58.267Z,6.07
2018-02-13T10:20:25.746Z,4.90
2018-02-13T10:22:53.253Z,6.70
2018-02-13T10:25:20.758Z,6.17
2018-02-13T10:27:48.211Z,5.63
2018-02-13T10:30:15.716Z,5.60
2018-02-13T10:32:43.186Z,6.57
2018-02-13T10:35:10.686Z,6.47
2018-02-13T10:37:38.187Z,6.50
2018-02-13T10:40:06.426Z,6.03
2018-02-13T10:42:33.920Z,5.10
2018-02-13T10:45:01.415Z,6.30
2018-02-13T10:47:28.887Z,6.00
2018-02-13T10:49:56.382Z,5.70
2018-02-13T10:52:24.102Z,6.40
2018-02-13T10:54:51.826Z,6.10
2018-02-13T10:57:20.090Z,5.57
2018-02-13T10:59:47.704Z,5.37
2018-02-13T11:02:20.833Z,5.67
2018-02-13T11:04:48.347Z,6.03
2018-02-13T11:07:15.867Z,5.37
2018-02-13T11:09:44.143Z,5.57
2018-02-13T11:12:12.397Z,6.40
2018-02-13T11:14:39.894Z,5.60
2018-02-13T11:17:07.387Z,5.83
2018-02-13T11:19:34.886Z,5.80
2018-02-13T11:22:03.156Z,5.67
2018-02-13T11:24:31.443Z,5.67
2018-02-13T11:26:59.679Z,4.87
2018-02-13T11:29:27.183Z,6.13
2018-02-13T11:31:54.639Z,5.43
2018-02-13T11:34:22.138Z,6.20
2018-02-13T11:36:49.639Z,4.70
2018-02-13T11:39:17.889Z,5.93
2018-02-13T11:41:45.371Z,4.33
2018-02-13T11:44:13.671Z,6.03
2018-02-13T11:46:41.141Z,3.97
2018-02-13T11:49:08.609Z,3.93
2018-02-13T11:51:36.066Z,2.93
2018-02-13T11:54:03.625Z,2.87
2018-02-13T11:56:31.090Z,1.87
2018-02-13T11:58:58.620Z,2.63
2018-02-13T12:01:26.085Z,1.83
2018-02-13T12:03:53.551Z,2.43
2018-02-13T12:06:21.082Z,1.73
2018-02-13T12:08:48.577Z,1.70
2018-02-13T12:11:16.128Z,2.20
2018-02-13T12:13:43.616Z,2.10
2018-02-13T12:16:11.957Z,2.07
2018-02-13T12:18:39.422Z,2.53
2018-02-13T12:21:07.128Z,2.00
2018-02-13T12:23:34.604Z,1.83
2018-02-13T12:26:02.115Z,2.47
2018-02-13T12:28:30.406Z,1.80
2018-02-13T12:30:58.716Z,1.83
2018-02-13T12:33:26.303Z,1.73
2018-02-13T12:35:53.846Z,1.77
2018-02-13T12:38:21.326Z,2.13
2018-02-13T12:40:48.885Z,2.30
2018-02-13T12:43:16.375Z,2.30
2018-02-13T12:45:43.921Z,2.50
2018-02-13T12:48:12.348Z,2.00
2018-02-13T12:50:39.870Z,1.70
2018-02-13T12:53:07.369Z,2.47
2018-02-13T12:55:34.879Z,1.80
2018-02-13T12:58:02.383Z,1.80
2018-02-13T13:00:29.935Z,1.90
2018-02-13T13:02:57.422Z,2.03
2018-02-13T13:05:24.884Z,1.73
2018-02-13T13:07:53.217Z,1.77
2018-02-13T13:10:20.709Z,2.33
2018-02-13T13:12:48.983Z,2.80
2018-02-13T13:15:16.493Z,2.20
2018-02-13T13:17:43.980Z,1.80
2018-02-13T13:20:11.492Z,2.00
2018-02-13T13:22:38.948Z,3.93
2018-02-13T13:25:06.454Z,1.47
2018-02-13T13:27:33.938Z,1.77
2018-02-13T13:30:02.195Z,1.93
2018-02-13T13:32:29.728Z,2.27
2018-02-13T13:34:57.230Z,1.90
2018-02-13T13:37:25.500Z,1.93
2018-02-13T13:39:53.736Z,2.10
2018-02-13T13:42:21.364Z,2.33
2018-02-13T13:44:48.833Z,2.13
2018-02-13T13:47:16.357Z,2.40
2018-02-13T13:49:44.674Z,2.60
2018-02-13T13:52:12.139Z,2.20
2018-02-13T13:54:39.631Z,1.70
2018-02-13T13:57:07.882Z,1.80
2018-02-13T13:59:37.162Z,2.10
2018-02-13T14:02:04.705Z,2.00
2018-02-13T14:04:32.213Z,2.73
2018-02-13T14:07:00.436Z,2.10
2018-02-13T14:09:27.929Z,2.80
2018-02-13T14:11:55.394Z,2.60
2018-02-13T14:14:22.915Z,2.93
2018-02-13T14:16:50.382Z,3.10
2018-02-13T14:19:17.933Z,2.40
2018-02-13T14:21:45.709Z,3.03
2018-02-13T14:24:14.418Z,2.80
2018-02-13T14:26:42.688Z,2.83
2018-02-13T14:29:10.161Z,2.80
2018-02-13T14:31:38.393Z,2.17
2018-02-13T14:34:06.187Z,2.27
2018-02-13T14:36:33.908Z,2.90
2018-02-13T14:39:01.514Z,2.80
2018-02-13T14:41:29.762Z,2.47
2018-02-13T14:43:57.291Z,2.80
2018-02-13T14:46:24.778Z,2.77
2018-02-13T14:48:53.228Z,2.70
2018-02-13T14:51:20.760Z,3.07
2018-02-13T14:53:48.374Z,2.70
2018-02-13T14:56:15.843Z,2.40
2018-02-13T14:58:44.125Z,2.63
2018-02-13T15:01:12.378Z,2.93
2018-02-13T15:03:39.879Z,3.40
2018-02-13T15:06:07.361Z,3.00
2018-02-13T15:08:34.865Z,2.33
2018-02-13T15:11:03.124Z,2.23
2018-02-13T15:13:30.705Z,2.57
2018-02-13T15:15:58.960Z,2.73
2018-02-13T15:18:36.398Z,3.70
2018-02-13T15:21:03.869Z,2.40
2018-02-13T15:23:31.379Z,3.27
2018-02-13T15:25:59.602Z,2.83
2018-02-13T15:28:27.112Z,2.73
2018-02-13T15:30:55.367Z,2.33
2018-02-13T15:33:22.937Z,2.87
2018-02-13T15:35:50.426Z,2.77
2018-02-13T15:38:18.072Z,2.70
2018-02-13T15:40:45.573Z,2.17
2018-02-13T15:43:13.053Z,3.27
2018-02-13T15:45:40.549Z,2.67
2018-02-13T15:48:08.017Z,3.13
2018-02-13T15:50:35.545Z,2.50
2018-02-13T15:53:03.948Z,2.97
2018-02-13T15:55:31.706Z,2.43
2018-02-13T15:57:59.194Z,2.80
2018-02-13T16:00:26.791Z,3.07
2018-02-13T16:02:54.723Z,2.83
2018-02-13T16:05:22.304Z,2.93
2018-02-13T16:07:49.832Z,2.10
2018-02-13T16:10:17.319Z,2.50
2018-02-13T16:12:44.909Z,2.20
2018-02-13T16:15:12.371Z,2.30
2018-02-13T16:17:39.869Z,2.30
2018-02-13T16:20:07.357Z,2.70
2018-02-13T16:22:35.620Z,2.63
2018-02-13T16:25:03.257Z,2.83
2018-02-13T16:27:30.758Z,2.97
2018-02-13T16:29:58.980Z,2.80
2018-02-13T16:32:27.339Z,3.10
2018-02-13T16:34:54.844Z,2.87
2018-02-13T16:37:22.462Z,2.60
2018-02-13T16:39:49.971Z,3.27
2018-02-13T16:42:18.198Z,3.07
2018-02-13T16:44:45.675Z,2.47
2018-02-13T16:47:13.218Z,2.80
2018-02-13T16:49:40.709Z,4.93
2018-02-13T16:52:08.174Z,3.30
2018-02-13T16:54:36.428Z,3.30
2018-02-13T16:57:03.932Z,2.43
2018-02-13T16:59:31.918Z,2.73
2018-02-13T17:02:00.688Z,3.77
2018-02-13T17:04:28.324Z,3.90
2018-02-13T17:06:56.580Z,4.50
2018-02-13T17:09:24.087Z,4.43
2018-02-13T17:11:51.558Z,2.90
2018-02-13T17:14:19.062Z,4.03
2018-02-13T17:16:47.315Z,3.07
2018-02-13T17:19:14.796Z,2.80
2018-02-13T17:21:43.053Z,3.20
2018-02-13T17:24:10.519Z,3.20
2018-02-13T17:26:38.759Z,4.00
2018-02-13T17:29:06.249Z,4.20
2018-02-13T17:31:34.496Z,3.67
2018-02-13T17:34:01.976Z,3.70
2018-02-13T17:36:29.458Z,3.63
2018-02-13T17:38:56.928Z,2.90
2018-02-13T17:41:24.438Z,2.80
2018-02-13T17:43:51.950Z,3.77
2018-02-13T17:46:19.696Z,2.70
2018-02-13T17:48:47.163Z,3.50
2018-02-13T17:51:14.669Z,3.20
2018-02-13T17:53:42.158Z,3.63
2018-02-13T17:56:09.639Z,3.60
2018-02-13T17:58:37.128Z,5.07
2018-02-13T18:01:04.604Z,5.43
2018-02-13T18:03:32.894Z,5.10
2018-02-13T18:06:01.152Z,3.70
2018-02-13T18:08:28.657Z,4.23
2018-02-13T18:10:56.124Z,4.00
2018-02-13T18:13:23.592Z,4.70
2018-02-13T18:15:51.079Z,3.87
2018-02-13T18:18:18.548Z,4.77
2018-02-13T18:20:46.795Z,3.53
2018-02-13T18:23:14.276Z,4.27
2018-02-13T18:25:42.524Z,4.03
2018-02-13T18:28:10.035Z,4.97
2018-02-13T18:30:37.522Z,3.80
2018-02-13T18:33:05.306Z,3.50
2018-02-13T18:35:33.244Z,3.33
2018-02-13T18:38:00.759Z,3.67
2018-02-13T18:40:28.266Z,4.00
2018-02-13T18:42:55.770Z,3.37
2018-02-13T18:45:23.340Z,3.63
2018-02-13T18:47:50.822Z,4.17
2018-02-13T18:50:18.394Z,3.70
2018-02-13T18:55:14.256Z,4.50
2018-02-13T18:57:41.774Z,3.40
2018-02-13T19:00:09.354Z,4.23
2018-02-13T19:02:36.956Z,4.13
2018-02-13T19:05:04.717Z,3.20
2018-02-13T19:07:32.192Z,4.07
2018-02-13T19:09:59.684Z,4.97
2018-02-13T19:12:27.216Z,4.50
2018-02-13T19:14:54.702Z,3.20
2018-02-13T19:17:22.220Z,3.97
2018-02-13T19:19:49.708Z,3.60
2018-02-13T19:22:17.235Z,4.37
2018-02-13T19:24:44.706Z,4.53
2018-02-13T19:27:12.213Z,3.40
2018-02-13T19:29:40.463Z,5.23
2018-02-13T19:32:08.700Z,4.53
2018-02-13T19:34:36.198Z,5.17
2018-02-13T19:37:03.811Z,3.63
2018-02-13T19:39:31.286Z,3.03
2018-02-13T19:41:58.895Z,3.63
2018-02-13T19:44:27.212Z,3.50
2018-02-13T19:46:55.483Z,3.10
2018-02-13T19:49:22.966Z,3.07
2018-02-13T19:51:50.518Z,2.90
2018-02-13T19:54:19.652Z,3.50
2018-02-13T19:56:49.246Z,2.87
2018-02-13T19:59:17.638Z,2.80
2018-02-13T20:01:45.849Z,3.70
2018-02-13T20:04:14.465Z,3.83
2018-02-13T20:06:42.018Z,3.53
2018-02-13T20:09:09.531Z,3.33
2018-02-13T20:11:37.017Z,3.27
2018-02-13T20:14:04.502Z,2.87
2018-02-13T20:16:31.993Z,3.37
2018-02-13T20:19:00.637Z,3.83
2018-02-13T20:21:28.186Z,3.70
2018-02-13T20:23:55.776Z,4.33
2018-02-13T20:26:24.030Z,3.93
2018-02-13T20:28:51.596Z,3.63
2018-02-13T20:31:19.830Z,3.33
2018-02-13T20:33:48.116Z,3.73
2018-02-13T20:36:15.732Z,3.90
2018-02-13T20:38:43.203Z,3.50
2018-02-13T20:41:10.821Z,3.40
2018-02-13T20:43:39.066Z,3.90
2018-02-13T20:46:06.556Z,2.87
2018-02-13T20:48:34.831Z,4.33
2018-02-13T20:51:03.091Z,3.63
2018-02-13T20:53:30.887Z,4.10
2018-02-13T20:55:58.789Z,4.33
2018-02-13T20:58:26.555Z,3.57
2018-02-13T21:00:57.218Z,3.40
2018-02-13T21:03:25.736Z,3.87
2018-02-13T21:05:53.466Z,3.97
2018-02-13T21:08:22.567Z,3.77
2018-02-13T21:10:51.490Z,3.50
2018-02-13T21:13:19.351Z,4.17
2018-02-13T21:15:46.868Z,3.90
2018-02-13T21:18:14.372Z,3.20
2018-02-13T21:20:41.926Z,4.27
2018-02-13T21:23:09.495Z,4.20
2018-02-13T21:25:36.976Z,3.57
2018-02-13T21:28:04.507Z,4.03
2018-02-13T21:30:32.403Z,3.83
2018-02-13T21:33:01.139Z,4.07
2018-02-13T21:35:28.739Z,3.80
2018-02-13T21:37:56.236Z,4.07
2018-02-13T21:40:23.739Z,3.80
2018-02-13T21:42:51.239Z,4.70
2018-02-13T21:45:18.767Z,3.40
2018-02-13T21:47:46.325Z,4.03
2018-02-13T21:50:13.961Z,4.63
2018-02-13T21:52:41.750Z,4.33
2018-02-13T21:55:09.861Z,4.17
2018-02-13T21:57:37.331Z,3.50
2018-02-13T22:00:04.826Z,4.20
2018-02-13T22:02:32.298Z,3.47
2018-02-13T22:04:59.883Z,3.37
2018-02-13T22:09:53.070Z,4.10
2018-02-13T22:12:20.549Z,4.67
2018-02-13T22:14:48.018Z,4.07
2018-02-13T22:17:15.503Z,5.03
2018-02-13T22:19:43.308Z,4.60
2018-02-13T22:22:10.805Z,4.70
2018-02-13T22:24:38.443Z,5.07
2018-02-13T22:27:05.945Z,4.83
2018-02-13T22:29:34.216Z,4.40
2018-02-13T22:32:01.715Z,4.53
2018-02-13T22:34:29.366Z,4.70
2018-02-13T22:36:56.898Z,5.07
2018-02-13T22:39:25.272Z,4.77
2018-02-13T22:41:53.530Z,4.57
2018-02-13T22:44:21.073Z,4.40
2018-02-13T22:46:48.588Z,3.87
2018-02-13T22:49:16.078Z,4.50
2018-02-13T22:51:43.558Z,3.50
2018-02-13T22:54:11.080Z,3.67
2018-02-13T22:56:38.620Z,4.10
2018-02-13T22:59:06.145Z,2.97
2018-02-13T23:01:33.674Z,3.93
2018-02-13T23:04:01.143Z,3.63
2018-02-13T23:06:28.673Z,3.87
2018-02-13T23:08:56.193Z,3.40
2018-02-13T23:11:23.684Z,3.37
2018-02-13T23:13:51.194Z,3.60
2018-02-13T23:16:19.445Z,3.20
2018-02-13T23:18:46.937Z,3.87
2018-02-13T23:21:14.483Z,3.20
2018-02-13T23:23:42.784Z,3.43
2018-02-13T23:26:11.929Z,3.77
2018-02-13T23:28:39.393Z,4.27
2018-02-13T23:31:06.884Z,3.73
2018-02-13T23:33:34.365Z,3.67
2018-02-13T23:36:01.845Z,3.57
2018-02-13T23:38:29.335Z,4.17
2018-02-13T23:40:57.856Z,3.73
2018-02-13T23:43:25.363Z,3.87
2018-02-13T23:45:53.618Z,4.10
2018-02-13T23:48:21.291Z,3.60
2018-02-13T23:50:48.753Z,3.93
2018-02-13T23:53:16.999Z,4.00
2018-02-13T23:55:44.469Z,3.90
2018-02-13T23:58:12.722Z,3.30
